createdAt,value
2018-07-09T00:01:42.039Z,17.10
2018-07-09T00:04:09.598Z,17.00
2018-07-09T00:06:37.156Z,17.00
2018-07-09T00:09:04.773Z,16.90
2018-07-09T00:11:32.329Z,16.80
2018-07-09T00:13:59.883Z,16.80
2018-07-09T00:16:27.501Z,16.70
2018-07-09T00:18:55.065Z,16.70
2018-07-09T00:21:22.619Z,16.70
2018-07-09T00:23:51.168Z,16.70
2018-07-09T00:26:18.541Z,16.60
2018-07-09T00:28:46.102Z,16.60
2018-07-09T00:31:13.697Z,16.60
2018-07-09T00:33:41.259Z,16.60
2018-07-09T00:36:08.821Z,16.50
2018-07-09T00:38:37.249Z,16.70
2018-07-09T00:41:04.801Z,16.70
2018-07-09T00:43:32.368Z,16.60
2018-07-09T00:45:59.966Z,16.60
2018-07-09T00:48:27.550Z,16.50
2018-07-09T00:50:55.170Z,16.50
2018-07-09T00:53:22.719Z,16.60
2018-07-09T00:55:50.283Z,16.60
2018-07-09T00:58:17.839Z,16.60
2018-07-09T01:00:45.446Z,16.50
2018-07-09T01:03:13.006Z,16.50
2018-07-09T01:05:40.567Z,16.40
2018-07-09T01:08:08.162Z,16.30
2018-07-09T01:10:36.495Z,16.60
2018-07-09T01:13:04.055Z,16.60
2018-07-09T01:15:31.649Z,16.50
2018-07-09T01:17:59.209Z,16.50
2018-07-09T01:20:27.608Z,16.30
2018-07-09T01:22:55.145Z,16.30
2018-07-09T01:25:22.726Z,16.20
2018-07-09T01:27:50.282Z,16.20
2018-07-09T01:30:18.640Z,16.00
2018-07-09T01:32:46.195Z,16.00
2018-07-09T01:35:13.757Z,16.00
2018-07-09T01:37:41.359Z,16.10
2018-07-09T01:40:08.914Z,16.20
2018-07-09T01:42:36.471Z,16.30
2018-07-09T01:45:04.833Z,16.20
2018-07-09T01:47:32.394Z,16.20
2018-07-09T01:50:00.204Z,16.10
2018-07-09T01:52:27.806Z,16.00
2018-07-09T01:54:55.367Z,15.90
2018-07-09T01:57:22.927Z,15.90
2018-07-09T01:59:50.522Z,16.00
2018-07-09T02:02:18.850Z,15.90
2018-07-09T02:04:46.411Z,15.90
2018-07-09T02:07:14.898Z,15.90
2018-07-09T02:09:42.456Z,15.80
2018-07-09T02:12:10.022Z,15.80
2018-07-09T02:14:37.619Z,15.70
2018-07-09T02:17:05.948Z,15.60
2018-07-09T02:19:33.505Z,15.60
2018-07-09T02:22:01.104Z,15.60
2018-07-09T02:24:28.666Z,15.50
2018-07-09T02:26:56.225Z,15.50
2018-07-09T02:29:23.844Z,15.60
2018-07-09T02:31:51.402Z,15.60
2018-07-09T02:34:18.964Z,15.50
2018-07-09T02:36:46.565Z,15.50
2018-07-09T02:39:14.130Z,15.40
2018-07-09T02:41:41.689Z,15.40
2018-07-09T02:44:09.278Z,15.50
2018-07-09T02:46:37.609Z,15.40
2018-07-09T02:49:05.183Z,15.40
2018-07-09T02:51:33.247Z,15.30
2018-07-09T02:54:00.805Z,15.30
2018-07-09T02:56:28.367Z,15.20
2018-07-09T02:58:55.958Z,15.20
2018-07-09T03:01:23.519Z,15.20
2018-07-09T03:03:52.373Z,15.10
2018-07-09T03:06:18.687Z,15.10
2018-07-09T03:08:46.250Z,15.10
2018-07-09T03:11:14.147Z,15.20
2018-07-09T03:13:41.759Z,15.20
2018-07-09T03:16:10.082Z,15.30
2018-07-09T03:18:37.642Z,15.20
2018-07-09T03:21:05.245Z,15.20
2018-07-09T03:23:32.801Z,15.20
2018-07-09T03:26:00.359Z,15.10
2018-07-09T03:28:27.959Z,15.10
2018-07-09T03:30:55.523Z,15.00
2018-07-09T03:33:23.082Z,15.00
2018-07-09T03:35:50.708Z,15.00
2018-07-09T03:38:18.279Z,14.90
2018-07-09T03:40:45.844Z,14.90
2018-07-09T03:43:14.210Z,14.80
2018-07-09T03:45:41.770Z,14.80
2018-07-09T03:48:09.329Z,14.80
2018-07-09T03:50:36.928Z,14.80
2018-07-09T03:53:04.491Z,14.80
2018-07-09T03:55:32.051Z,14.80
2018-07-09T03:58:00.358Z,14.80
2018-07-09T04:00:27.918Z,14.80
2018-07-09T04:02:55.483Z,14.80
2018-07-09T04:05:23.080Z,14.80
2018-07-09T04:07:50.637Z,14.80
2018-07-09T04:10:18.203Z,14.80
2018-07-09T04:12:45.809Z,14.80
2018-07-09T04:15:13.366Z,14.80
2018-07-09T04:17:40.924Z,14.80
2018-07-09T04:20:08.536Z,14.80
2018-07-09T04:22:36.094Z,14.80
2018-07-09T04:25:03.656Z,14.80
2018-07-09T04:27:31.245Z,14.80
2018-07-09T04:29:59.574Z,14.90
2018-07-09T04:32:27.135Z,14.80
2018-07-09T04:34:54.737Z,14.90
2018-07-09T04:37:23.065Z,15.00
2018-07-09T04:39:51.042Z,15.00
2018-07-09T04:42:19.021Z,15.00
2018-07-09T04:44:46.583Z,15.10
2018-07-09T04:47:14.146Z,15.10
2018-07-09T04:49:41.737Z,15.40
2018-07-09T04:52:09.298Z,15.40
2018-07-09T04:54:36.861Z,15.60
2018-07-09T04:57:05.218Z,15.70
2018-07-09T04:59:32.773Z,15.60
2018-07-09T05:02:00.333Z,15.70
2018-07-09T05:04:27.955Z,15.70
2018-07-09T05:06:55.522Z,15.70
2018-07-09T05:09:23.088Z,15.70
2018-07-09T05:11:50.696Z,15.80
2018-07-09T05:14:18.259Z,15.80
2018-07-09T05:16:45.822Z,15.80
2018-07-09T05:19:13.905Z,15.90
2018-07-09T05:21:42.531Z,16.10
2018-07-09T05:24:10.089Z,16.10
2018-07-09T05:26:37.695Z,16.20
2018-07-09T05:29:05.278Z,16.20
2018-07-09T05:31:33.597Z,16.20
2018-07-09T05:34:01.247Z,16.20
2018-07-09T05:36:28.837Z,16.30
2018-07-09T05:38:56.394Z,16.50
2018-07-09T05:41:24.035Z,16.60
2018-07-09T05:43:51.602Z,16.60
2018-07-09T05:46:19.164Z,16.70
2018-07-09T05:48:47.168Z,16.70
2018-07-09T05:51:14.723Z,16.80
2018-07-09T05:53:42.282Z,16.90
2018-07-09T05:56:09.922Z,16.90
2018-07-09T05:58:37.487Z,17.10
2018-07-09T06:01:05.059Z,17.40
2018-07-09T06:03:33.029Z,17.50
2018-07-09T06:06:00.596Z,17.50
2018-07-09T06:08:28.160Z,17.50
2018-07-09T06:10:55.778Z,17.60
2018-07-09T06:13:23.348Z,17.60
2018-07-09T06:15:50.901Z,17.60
2018-07-09T06:18:18.525Z,17.60
2018-07-09T06:20:46.090Z,17.70
2018-07-09T06:23:13.659Z,17.70
2018-07-09T06:25:41.269Z,17.90
2018-07-09T06:28:08.855Z,18.00
2018-07-09T06:30:36.418Z,18.00
2018-07-09T06:33:04.390Z,18.10
2018-07-09T06:35:31.951Z,18.20
2018-07-09T06:37:59.525Z,18.20
2018-07-09T06:40:27.166Z,18.40
2018-07-09T06:42:54.736Z,18.60
2018-07-09T06:45:22.296Z,18.70
2018-07-09T06:47:49.905Z,18.70
2018-07-09T06:50:17.472Z,18.80
2018-07-09T06:52:45.031Z,19.00
2018-07-09T06:55:12.675Z,19.00
2018-07-09T06:57:41.004Z,19.00
2018-07-09T07:00:08.571Z,19.00
2018-07-09T07:02:36.212Z,19.00
2018-07-09T07:05:03.773Z,19.00
2018-07-09T07:07:31.337Z,19.00
2018-07-09T07:09:58.984Z,19.10
2018-07-09T07:12:26.553Z,19.10
2018-07-09T07:14:54.114Z,19.20
2018-07-09T07:17:21.727Z,19.20
2018-07-09T07:19:49.293Z,19.30
2018-07-09T07:22:16.858Z,19.30
2018-07-09T07:24:44.497Z,19.40
2018-07-09T07:27:12.054Z,19.50
2018-07-09T07:29:39.618Z,19.60
2018-07-09T07:32:07.473Z,19.70
2018-07-09T07:34:35.036Z,19.90
2018-07-09T07:37:02.595Z,19.90
2018-07-09T07:39:30.206Z,19.90
2018-07-09T07:41:57.769Z,20.00
2018-07-09T07:44:26.102Z,20.10
2018-07-09T07:46:54.486Z,20.10
2018-07-09T07:49:22.046Z,20.20
2018-07-09T07:51:49.608Z,20.20
2018-07-09T07:54:17.214Z,20.30
2018-07-09T07:56:44.781Z,20.30
2018-07-09T07:59:13.112Z,20.40
2018-07-09T08:01:40.722Z,20.40
2018-07-09T08:04:08.282Z,20.50
2018-07-09T08:06:36.615Z,20.70
2018-07-09T08:09:05.195Z,20.60
2018-07-09T08:11:48.561Z,20.70
2018-07-09T08:14:00.355Z,20.80
2018-07-09T08:16:28.732Z,20.90
2018-07-09T08:18:57.062Z,20.90
2018-07-09T08:21:24.617Z,20.90
2018-07-09T08:23:52.232Z,21.00
2018-07-09T08:26:19.806Z,21.00
2018-07-09T08:28:48.127Z,21.30
2018-07-09T08:31:16.353Z,21.20
2018-07-09T08:33:43.781Z,21.30
2018-07-09T08:36:11.351Z,21.40
2018-07-09T08:38:39.329Z,21.60
2018-07-09T08:41:06.893Z,21.60
2018-07-09T08:43:34.464Z,21.70
2018-07-09T08:46:03.179Z,21.90
2018-07-09T08:48:30.745Z,21.90
2018-07-09T08:50:58.310Z,21.90
2018-07-09T08:53:26.312Z,22.00
2018-07-09T08:55:53.897Z,22.00
2018-07-09T08:58:21.464Z,22.00
2018-07-09T09:00:49.870Z,22.10
2018-07-09T09:03:17.438Z,22.00
2018-07-09T09:05:45.001Z,22.10
2018-07-09T09:08:12.648Z,22.10
2018-07-09T09:10:40.983Z,22.20
2018-07-09T09:13:08.559Z,22.20
2018-07-09T09:15:36.187Z,22.20
2018-07-09T09:18:03.747Z,22.40
2018-07-09T09:20:31.321Z,22.40
2018-07-09T09:22:59.633Z,22.40
2018-07-09T09:25:27.245Z,22.40
2018-07-09T09:27:55.542Z,22.40
2018-07-09T09:30:23.932Z,22.40
2018-07-09T09:32:51.499Z,22.40
2018-07-09T09:35:19.067Z,22.40
2018-07-09T09:37:46.685Z,22.40
2018-07-09T09:40:14.286Z,22.50
2018-07-09T09:42:41.819Z,22.50
2018-07-09T09:45:09.438Z,22.60
2018-07-09T09:47:37.769Z,22.70
2018-07-09T09:50:05.334Z,22.70
2018-07-09T09:52:32.958Z,22.70
2018-07-09T09:55:00.584Z,22.80
2018-07-09T09:57:28.093Z,22.90
2018-07-09T09:59:55.700Z,23.00
2018-07-09T10:02:23.265Z,23.00
2018-07-09T10:04:50.835Z,23.10
2018-07-09T10:07:18.821Z,23.10
2018-07-09T10:09:47.149Z,23.20
2018-07-09T10:12:14.728Z,23.20
2018-07-09T10:14:42.724Z,23.30
2018-07-09T10:17:10.293Z,23.40
2018-07-09T10:19:38.637Z,23.40
2018-07-09T10:22:07.103Z,23.40
2018-07-09T10:24:34.670Z,23.40
2018-07-09T10:27:02.237Z,23.50
2018-07-09T10:29:31.479Z,23.50
2018-07-09T10:31:59.813Z,23.70
2018-07-09T10:34:27.378Z,23.70
2018-07-09T10:36:55.000Z,23.70
2018-07-09T10:39:22.563Z,23.80
2018-07-09T10:41:50.134Z,23.80
2018-07-09T10:44:17.749Z,23.90
2018-07-09T10:46:46.082Z,24.00
2018-07-09T10:49:13.646Z,24.00
2018-07-09T10:51:41.261Z,24.10
2018-07-09T10:54:09.600Z,24.10
2018-07-09T10:56:37.165Z,24.10
2018-07-09T10:59:04.789Z,24.20
2018-07-09T11:01:32.368Z,24.20
2018-07-09T11:03:59.932Z,24.40
2018-07-09T11:06:27.540Z,24.40
2018-07-09T11:08:55.102Z,24.40
2018-07-09T11:11:22.701Z,24.40
2018-07-09T11:13:51.740Z,24.50
2018-07-09T11:16:17.915Z,24.50
2018-07-09T11:18:45.439Z,24.50
2018-07-09T11:21:13.046Z,24.50
2018-07-09T11:23:40.611Z,24.60
2018-07-09T11:26:08.174Z,24.50
2018-07-09T11:28:37.095Z,24.50
2018-07-09T11:31:04.676Z,24.50
2018-07-09T11:33:32.245Z,24.50
2018-07-09T11:35:59.874Z,24.50
2018-07-09T11:38:27.426Z,24.50
2018-07-09T11:40:54.997Z,24.50
2018-07-09T11:43:22.627Z,24.60
2018-07-09T11:45:50.200Z,24.70
2018-07-09T11:48:17.780Z,24.70
2018-07-09T11:50:45.429Z,24.70
2018-07-09T11:53:12.993Z,24.80
2018-07-09T11:55:41.356Z,25.10
2018-07-09T11:58:09.735Z,25.20
2018-07-09T12:00:37.303Z,25.20
2018-07-09T12:03:04.869Z,25.30
2018-07-09T12:05:32.484Z,25.40
2018-07-09T12:08:00.820Z,25.60
2018-07-09T12:10:28.379Z,25.60
2018-07-09T12:12:56.021Z,25.70
2018-07-09T12:15:23.608Z,25.80
2018-07-09T12:17:51.139Z,25.90
2018-07-09T12:20:19.100Z,25.90
2018-07-09T12:22:46.677Z,26.00
2018-07-09T12:25:14.248Z,26.10
2018-07-09T12:27:41.855Z,26.20
2018-07-09T12:30:09.422Z,26.20
2018-07-09T12:32:37.765Z,26.20
2018-07-09T12:35:05.375Z,26.20
2018-07-09T12:37:33.705Z,26.30
2018-07-09T12:40:01.273Z,26.20
2018-07-09T12:42:28.887Z,26.40
2018-07-09T12:44:56.451Z,26.30
2018-07-09T12:47:24.016Z,26.20
2018-07-09T12:49:51.630Z,26.20
2018-07-09T12:52:19.197Z,26.20
2018-07-09T12:54:46.770Z,26.30
2018-07-09T12:57:15.185Z,26.30
2018-07-09T12:59:42.748Z,26.30
2018-07-09T13:02:10.310Z,26.20
2018-07-09T13:04:37.925Z,26.20
2018-07-09T13:07:05.547Z,26.30
2018-07-09T13:09:33.056Z,26.40
2018-07-09T13:12:01.435Z,26.30
2018-07-09T13:14:29.019Z,26.30
2018-07-09T13:16:57.339Z,26.40
2018-07-09T13:19:24.969Z,26.40
2018-07-09T13:21:52.542Z,26.50
2018-07-09T13:24:20.106Z,26.60
2018-07-09T13:26:48.719Z,26.60
2018-07-09T13:29:16.315Z,26.60
2018-07-09T13:31:43.902Z,26.40
2018-07-09T13:34:11.521Z,26.20
2018-07-09T13:36:39.090Z,26.10
2018-07-09T13:39:06.658Z,25.90
2018-07-09T13:41:35.071Z,25.90
2018-07-09T13:44:02.652Z,25.90
2018-07-09T13:46:30.206Z,26.00
2018-07-09T13:48:58.206Z,26.10
2018-07-09T13:51:25.769Z,26.20
2018-07-09T13:53:53.336Z,26.40
2018-07-09T13:56:21.529Z,26.50
2018-07-09T13:58:50.609Z,26.70
2018-07-09T14:01:18.178Z,26.70
2018-07-09T14:03:45.793Z,26.60
2018-07-09T14:06:13.375Z,26.60
2018-07-09T14:08:40.944Z,26.60
2018-07-09T14:11:09.431Z,26.60
2018-07-09T14:13:37.006Z,26.80
2018-07-09T14:16:04.570Z,26.90
2018-07-09T14:18:32.963Z,27.10
2018-07-09T14:21:00.535Z,27.10
2018-07-09T14:23:28.865Z,26.80
2018-07-09T14:25:56.488Z,26.70
2018-07-09T14:28:24.054Z,26.60
2018-07-09T14:30:51.616Z,26.50
2018-07-09T14:33:19.623Z,26.50
2018-07-09T14:35:47.189Z,26.50
2018-07-09T14:38:14.760Z,26.40
2018-07-09T14:40:42.381Z,26.30
2018-07-09T14:43:09.948Z,26.40
2018-07-09T14:45:37.556Z,26.50
2018-07-09T14:48:05.138Z,26.60
2018-07-09T14:50:33.469Z,26.60
2018-07-09T14:53:01.039Z,26.60
2018-07-09T14:55:29.408Z,26.50
2018-07-09T14:57:56.979Z,26.50
2018-07-09T15:00:24.550Z,26.50
2018-07-09T15:02:52.160Z,26.50
2018-07-09T15:05:19.728Z,26.80
2018-07-09T15:07:47.292Z,26.90
2018-07-09T15:10:14.901Z,27.00
2018-07-09T15:12:42.456Z,27.10
2018-07-09T15:15:10.019Z,27.20
2018-07-09T15:17:37.640Z,27.10
2018-07-09T15:20:05.208Z,27.10
2018-07-09T15:22:32.777Z,27.20
2018-07-09T15:25:00.396Z,27.20
2018-07-09T15:27:27.964Z,27.20
2018-07-09T15:29:55.528Z,27.30
2018-07-09T15:32:23.592Z,27.20
2018-07-09T15:34:51.112Z,27.20
2018-07-09T15:37:18.679Z,27.00
2018-07-09T15:39:46.296Z,26.90
2018-07-09T15:42:13.864Z,27.00
2018-07-09T15:44:41.434Z,27.10
2018-07-09T15:47:09.924Z,27.10
2018-07-09T15:49:37.500Z,27.20
2018-07-09T15:52:05.058Z,27.30
2018-07-09T15:54:33.322Z,27.50
2018-07-09T15:57:00.894Z,27.70
2018-07-09T15:59:28.457Z,27.90
2018-07-09T16:01:56.518Z,27.80
2018-07-09T16:04:24.092Z,27.60
2018-07-09T16:06:51.650Z,27.40
2018-07-09T16:09:19.759Z,27.20
2018-07-09T16:11:48.090Z,27.30
2018-07-09T16:14:15.649Z,27.30
2018-07-09T16:16:43.270Z,27.30
2018-07-09T16:19:10.852Z,27.30
2018-07-09T16:21:38.420Z,27.40
2018-07-09T16:24:06.037Z,27.50
2018-07-09T16:26:34.369Z,27.60
2018-07-09T16:29:01.987Z,27.60
2018-07-09T16:31:29.558Z,27.70
2018-07-09T16:33:57.132Z,27.80
2018-07-09T16:36:24.715Z,27.90
2018-07-09T16:38:53.010Z,28.10
2018-07-09T16:41:20.583Z,28.10
2018-07-09T16:43:48.145Z,28.00
2018-07-09T16:46:15.788Z,28.10
2018-07-09T16:48:43.355Z,28.00
2018-07-09T16:51:10.921Z,27.80
2018-07-09T16:53:38.530Z,27.60
2018-07-09T16:56:06.094Z,27.40
2018-07-09T16:58:33.656Z,27.40
2018-07-09T17:01:01.270Z,27.30
2018-07-09T17:03:28.833Z,27.20
2018-07-09T17:05:56.430Z,27.10
2018-07-09T17:08:24.108Z,26.90
2018-07-09T17:10:52.423Z,26.80
2018-07-09T17:13:19.986Z,26.80
2018-07-09T17:15:47.599Z,26.50
2018-07-09T17:18:15.155Z,26.40
2018-07-09T17:20:42.723Z,26.40
2018-07-09T17:23:10.375Z,26.20
2018-07-09T17:25:38.702Z,26.00
2018-07-09T17:28:06.258Z,26.00
2018-07-09T17:30:33.906Z,25.80
2018-07-09T17:33:01.476Z,25.60
2018-07-09T17:35:29.041Z,25.50
2018-07-09T17:37:56.658Z,25.40
2018-07-09T17:40:24.993Z,25.30
2018-07-09T17:42:52.553Z,25.30
2018-07-09T17:45:20.162Z,25.30
2018-07-09T17:47:47.731Z,25.20
2018-07-09T17:50:15.349Z,25.20
2018-07-09T17:52:42.905Z,25.20
2018-07-09T17:55:10.470Z,25.20
2018-07-09T17:57:38.030Z,25.20
2018-07-09T18:00:05.651Z,25.20
2018-07-09T18:02:33.219Z,25.20
2018-07-09T18:05:00.787Z,25.20
2018-07-09T18:07:28.407Z,25.10
2018-07-09T18:09:56.748Z,25.10
2018-07-09T18:12:24.313Z,25.10
2018-07-09T18:14:51.958Z,25.10
2018-07-09T18:17:19.527Z,25.00
2018-07-09T18:19:47.113Z,25.00
2018-07-09T18:22:15.176Z,24.90
2018-07-09T18:24:42.741Z,24.90
2018-07-09T18:27:10.310Z,24.90
2018-07-09T18:29:37.928Z,24.90
2018-07-09T18:32:05.499Z,24.80
2018-07-09T18:34:33.062Z,25.00
2018-07-09T18:37:01.675Z,24.90
2018-07-09T18:39:29.238Z,24.90
2018-07-09T18:41:56.821Z,24.80
2018-07-09T18:44:24.464Z,24.70
2018-07-09T18:46:52.033Z,24.60
2018-07-09T18:49:19.606Z,24.50
2018-07-09T18:51:47.915Z,24.60
2018-07-09T18:54:15.478Z,24.50
2018-07-09T18:56:43.046Z,24.40
2018-07-09T18:59:10.663Z,24.40
2018-07-09T19:01:38.226Z,24.30
2018-07-09T19:04:06.561Z,24.10
2018-07-09T19:06:34.178Z,24.10
2018-07-09T19:09:02.511Z,24.00
2018-07-09T19:11:30.082Z,23.90
2018-07-09T19:13:57.691Z,23.80
2018-07-09T19:16:25.250Z,23.80
2018-07-09T19:19:30.304Z,23.70
2018-07-09T19:21:57.876Z,23.60
2018-07-09T19:24:24.927Z,23.50
2018-07-09T19:26:52.038Z,23.40
2018-07-09T19:29:19.868Z,23.30
2018-07-09T19:31:46.920Z,23.20
2018-07-09T19:34:15.005Z,23.20
2018-07-09T19:36:42.088Z,23.10
2018-07-09T19:39:09.906Z,23.10
2018-07-09T19:41:37.041Z,23.10
2018-07-09T19:44:04.064Z,23.00
2018-07-09T19:46:31.120Z,22.90
2018-07-09T19:48:58.223Z,22.70
2018-07-09T19:51:25.282Z,22.70
2018-07-09T19:53:52.342Z,22.50
2018-07-09T19:56:20.163Z,22.50
2018-07-09T19:58:47.227Z,22.40
2018-07-09T20:01:14.283Z,22.40
2018-07-09T20:03:41.393Z,22.30
2018-07-09T20:06:08.455Z,22.30
2018-07-09T20:08:35.527Z,22.20
2018-07-09T20:11:21.104Z,22.20
2018-07-09T20:13:48.163Z,22.20
2018-07-09T20:16:18.014Z,22.10
2018-07-09T20:18:45.116Z,22.10
2018-07-09T20:21:12.180Z,22.20
2018-07-09T20:23:39.238Z,22.20
2018-07-09T20:26:07.130Z,22.30
2018-07-09T20:28:34.194Z,22.30
2018-07-09T20:31:01.256Z,22.20
2018-07-09T20:33:28.820Z,22.30
2018-07-09T20:35:55.879Z,22.20
2018-07-09T20:38:22.948Z,22.10
2018-07-09T20:40:50.052Z,22.00
2018-07-09T20:45:37.432Z,21.80
2018-07-09T20:48:06.252Z,21.70
2018-07-09T20:50:34.077Z,21.50
2018-07-09T20:53:01.139Z,21.50
2018-07-09T20:55:28.230Z,21.50
2018-07-09T20:57:56.056Z,21.50
2018-07-09T21:00:23.115Z,21.50
2018-07-09T21:02:50.243Z,21.40
2018-07-09T21:05:17.301Z,21.50
2018-07-09T21:07:44.378Z,21.40
2018-07-09T21:10:11.474Z,21.30
2018-07-09T21:12:38.526Z,21.20
2018-07-09T21:15:05.610Z,21.10
2018-07-09T21:17:32.682Z,21.00
2018-07-09T21:19:59.782Z,20.90
2018-07-09T21:22:27.142Z,20.80
2018-07-09T21:24:54.620Z,20.80
2018-07-09T21:27:21.671Z,20.70
2018-07-09T21:29:48.732Z,20.60
2018-07-09T21:32:16.276Z,20.70
2018-07-09T21:34:43.331Z,20.80
2018-07-09T21:37:10.399Z,20.70
2018-07-09T21:39:37.500Z,20.80
2018-07-09T21:42:04.551Z,20.70
2018-07-09T21:44:31.605Z,20.60
2018-07-09T21:46:59.077Z,20.50
2018-07-09T21:49:26.138Z,20.40
2018-07-09T21:51:53.197Z,20.40
2018-07-09T21:54:20.288Z,20.40
2018-07-09T21:56:47.350Z,20.40
2018-07-09T21:59:14.405Z,20.30
2018-07-09T22:01:41.502Z,20.30
2018-07-09T22:04:08.562Z,20.20
2018-07-09T22:06:36.388Z,20.00
2018-07-09T22:09:03.491Z,20.00
2018-07-09T22:11:30.549Z,19.90
2018-07-09T22:13:57.611Z,19.90
2018-07-09T22:16:24.698Z,19.80
2018-07-09T22:18:51.750Z,19.80
2018-07-09T22:21:18.805Z,20.00
2018-07-09T22:23:45.899Z,19.90
2018-07-09T22:26:12.960Z,19.90
2018-07-09T22:28:40.018Z,19.90
2018-07-09T22:31:07.645Z,19.80
2018-07-09T22:33:35.217Z,19.80
2018-07-09T22:36:02.781Z,19.80
2018-07-09T22:38:30.383Z,19.80
2018-07-09T22:40:57.960Z,19.70
2018-07-09T22:44:02.265Z,19.70
2018-07-09T22:46:29.819Z,19.70
2018-07-09T22:48:57.389Z,19.60
2018-07-09T22:51:25.048Z,19.70
2018-07-09T22:53:52.581Z,19.90
2018-07-09T22:56:20.143Z,19.90
2018-07-09T22:58:47.745Z,19.80
2018-07-09T23:01:15.321Z,19.80
2018-07-09T23:03:43.664Z,19.70
2018-07-09T23:06:11.264Z,19.70
2018-07-09T23:08:38.827Z,19.60
2018-07-09T23:11:07.163Z,19.50
2018-07-09T23:13:34.794Z,19.50
2018-07-09T23:16:02.362Z,19.50
2018-07-09T23:18:32.379Z,19.40
2018-07-09T23:20:59.976Z,19.50
2018-07-09T23:23:27.031Z,19.40
2018-07-09T23:25:54.094Z,19.40
2018-07-09T23:28:21.186Z,19.30
2018-07-09T23:30:48.242Z,19.30
2018-07-09T23:33:15.304Z,19.30
2018-07-09T23:35:42.416Z,19.30
2018-07-09T23:38:09.473Z,19.20
2018-07-09T23:40:36.539Z,19.20
2018-07-09T23:43:03.624Z,19.10
2018-07-09T23:45:30.687Z,19.00
2018-07-09T23:47:57.742Z,19.00
2018-07-09T23:50:24.836Z,19.10
2018-07-09T23:52:51.925Z,19.20
2018-07-09T23:55:18.946Z,19.10
2018-07-09T23:57:46.567Z,19.00
